Time;durP1;ratioP1;P1;durP2;ratioP2;P2;SDS_P1;SDS_P2;PMS_P1;PMS_P2;Temp;Humidity;BMP_temperature;BMP_pressure;BME280_temperature;BME280_humidity;BME280_pressure;Samples;Min_cycle;Max_cycle;Signal;HPM_P1;HPM_P2
2023/04/10 00:00:30;;;;;;;68.68;41.33;;;;;;;;;;5050575;28;20407;-81
2023/04/10 00:02:57;;;;;;;66.78;40.92;;;;;;;;;;5052395;28;20041;-81
2023/04/10 00:05:24;;;;;;;68.60;42.17;;;;;;;;;;5051397;28;20120;-81
2023/04/10 00:07:50;;;;;;;67.63;42.20;;;;;;;;;;5051055;28;20051;-81
2023/04/10 00:10:16;;;;;;;72.43;43.13;;;;;;;;;;5052422;28;20037;-80
2023/04/10 00:12:42;;;;;;;70.03;43.65;;;;;;;;;;5052288;28;20489;-81
2023/04/10 00:15:08;;;;;;;69.22;42.92;;;;;;;;;;5084627;28;20482;-80
2023/04/10 00:17:34;;;;;;;69.50;43.35;;;;;;;;;;5052768;28;20112;-81
2023/04/10 00:20:01;;;;;;;71.75;43.13;;;;;;;;;;5034556;28;20041;-81
2023/04/10 00:22:27;;;;;;;69.60;42.75;;;;;;;;;;5052325;28;20052;-81
2023/04/10 00:24:53;;;;;;;69.40;43.53;;;;;;;;;;5052062;28;20080;-80
2023/04/10 00:27:19;;;;;;;68.05;43.17;;;;;;;;;;5050932;28;20116;-81
2023/04/10 00:29:45;;;;;;;65.55;41.22;;;;;;;;;;5051912;28;20043;-81
2023/04/10 00:32:11;;;;;;;65.95;41.83;;;;;;;;;;5050960;28;20037;-80
2023/04/10 00:34:37;;;;;;;72.90;43.45;;;;;;;;;;5046064;28;20055;-81
2023/04/10 00:37:03;;;;;;;67.20;42.33;;;;;;;;;;5036105;28;20037;-80
2023/04/10 00:39:29;;;;;;;64.82;40.95;;;;;;;;;;5052106;28;20115;-80
2023/04/10 00:41:56;;;;;;;66.78;41.17;;;;;;;;;;5051475;28;20405;-81
2023/04/10 00:44:22;;;;;;;68.70;41.60;;;;;;;;;;5051721;28;20056;-80
2023/04/10 00:46:48;;;;;;;69.72;41.70;;;;;;;;;;5051818;28;20118;-80
2023/04/10 00:49:17;;;;;;;65.40;40.30;;;;;;;;;;5051721;28;20041;-81
2023/04/10 00:51:43;;;;;;;66.18;40.25;;;;;;;;;;5033645;28;20069;-81
2023/04/10 00:54:10;;;;;;;64.38;39.95;;;;;;;;;;5053606;28;20120;-81
2023/04/10 00:56:37;;;;;;;64.80;39.97;;;;;;;;;;5068558;28;20039;-81
2023/04/10 00:59:03;;;;;;;64.65;38.63;;;;;;;;;;5060214;28;20040;-80
2023/04/10 01:01:29;;;;;;;65.38;39.42;;;;;;;;;;5060856;28;20456;-80
2023/04/10 01:03:56;;;;;;;65.60;40.88;;;;;;;;;;5066461;28;20063;-81
2023/04/10 01:06:25;;;;;;;67.53;39.65;;;;;;;;;;5072001;28;20032;-80
2023/04/10 01:09:05;;;;;;;68.25;39.95;;;;;;;;;;5071892;28;20045;-80
2023/04/10 01:11:37;;;;;;;61.15;37.83;;;;;;;;;;5045050;28;20047;-81
2023/04/10 01:14:06;;;;;;;64.80;40.63;;;;;;;;;;5071580;28;20139;-80
2023/04/10 01:16:40;;;;;;;64.32;40.30;;;;;;;;;;5071800;28;20043;-80
2023/04/10 01:19:26;;;;;;;71.82;42.17;;;;;;;;;;5071509;28;20102;-80
2023/04/10 01:21:54;;;;;;;59.78;34.65;;;;;;;;;;5070199;28;20055;-80
2023/04/10 01:24:39;;;;;;;66.75;41.17;;;;;;;;;;5070432;28;20040;-80
2023/04/10 01:27:40;;;;;;;68.43;42.05;;;;;;;;;;5062717;28;20045;-80
2023/04/10 01:30:09;;;;;;;69.80;42.63;;;;;;;;;;5032383;28;20037;-80
2023/04/10 01:32:36;;;;;;;67.80;43.28;;;;;;;;;;5059051;28;20084;-80
2023/04/10 01:35:05;;;;;;;69.70;42.33;;;;;;;;;;5071523;28;20043;-80
2023/04/10 01:37:33;;;;;;;69.78;41.47;;;;;;;;;;5072231;28;20097;-80
2023/04/10 01:40:05;;;;;;;66.68;40.20;;;;;;;;;;5071311;28;20115;-80
2023/04/10 01:42:33;;;;;;;72.63;42.90;;;;;;;;;;5070748;28;20057;-80
2023/04/10 01:45:00;;;;;;;65.35;41.38;;;;;;;;;;5069918;28;20520;-80
2023/04/10 01:47:27;;;;;;;69.80;41.85;;;;;;;;;;5070400;28;20178;-80
2023/04/10 01:49:54;;;;;;;68.13;41.30;;;;;;;;;;5069924;28;20056;-80
2023/04/10 01:52:21;;;;;;;69.47;41.90;;;;;;;;;;5070322;28;20036;-81
2023/04/10 01:54:47;;;;;;;65.57;41.25;;;;;;;;;;5071246;28;20049;-81
2023/04/10 01:57:14;;;;;;;68.75;41.20;;;;;;;;;;5070280;28;20090;-81
2023/04/10 01:59:40;;;;;;;69.38;42.15;;;;;;;;;;5071765;28;20036;-80
2023/04/10 02:02:06;;;;;;;68.80;41.83;;;;;;;;;;5054073;28;20063;-80
2023/04/10 02:04:33;;;;;;;67.30;43.25;;;;;;;;;;5054678;28;20119;-80
2023/04/10 02:06:59;;;;;;;67.07;42.63;;;;;;;;;;5053734;28;20045;-80
2023/04/10 02:09:27;;;;;;;68.10;41.90;;;;;;;;;;5054729;28;20553;-80
2023/04/10 02:12:05;;;;;;;67.63;41.00;;;;;;;;;;5054508;28;20045;-80
2023/04/10 02:14:32;;;;;;;64.72;41.20;;;;;;;;;;5054439;28;20041;-80
2023/04/10 02:16:59;;;;;;;69.10;40.92;;;;;;;;;;5054025;28;20133;-81
2023/04/10 02:19:26;;;;;;;65.47;40.22;;;;;;;;;;5053206;28;20048;-80
2023/04/10 02:21:53;;;;;;;70.50;41.13;;;;;;;;;;5053829;28;20400;-80
2023/04/10 02:24:20;;;;;;;65.97;41.33;;;;;;;;;;5053247;28;20048;-80
2023/04/10 02:26:50;;;;;;;68.68;41.55;;;;;;;;;;5036433;28;20144;-80
2023/04/10 02:29:16;;;;;;;66.88;41.25;;;;;;;;;;5053556;28;20040;-80
2023/04/10 02:31:43;;;;;;;65.03;40.17;;;;;;;;;;5054025;28;20033;-80
2023/04/10 02:34:09;;;;;;;66.05;40.67;;;;;;;;;;5036115;28;20049;-80
2023/04/10 02:36:38;;;;;;;63.22;38.88;;;;;;;;;;5052928;28;20115;-80
2023/04/10 02:39:05;;;;;;;63.78;38.75;;;;;;;;;;5054251;28;20037;-80
2023/04/10 02:41:31;;;;;;;62.45;39.22;;;;;;;;;;5054116;28;20099;-80
2023/04/10 02:43:57;;;;;;;63.13;38.30;;;;;;;;;;5052292;28;20140;-80
2023/04/10 02:46:23;;;;;;;60.80;38.92;;;;;;;;;;5054143;28;20077;-80
2023/04/10 02:48:51;;;;;;;60.92;36.15;;;;;;;;;;5052548;28;20041;-81
2023/04/10 02:51:17;;;;;;;63.65;37.88;;;;;;;;;;5052492;28;20045;-80
2023/04/10 02:53:43;;;;;;;64.50;38.05;;;;;;;;;;5052769;28;20045;-81
2023/04/10 02:56:10;;;;;;;59.28;37.83;;;;;;;;;;5053551;28;20087;-80
2023/04/10 02:58:38;;;;;;;60.53;37.20;;;;;;;;;;5053787;28;20045;-80
2023/04/10 03:01:05;;;;;;;57.33;36.00;;;;;;;;;;5053291;28;20047;-80
2023/04/10 03:03:31;;;;;;;57.42;36.10;;;;;;;;;;5039760;28;20087;-80
2023/04/10 03:05:58;;;;;;;59.45;35.95;;;;;;;;;;5052103;28;20049;-80
2023/04/10 03:08:24;;;;;;;59.42;36.65;;;;;;;;;;5052392;28;20051;-80
2023/04/10 03:10:50;;;;;;;56.55;35.15;;;;;;;;;;5052587;28;20044;-80
2023/04/10 03:13:16;;;;;;;57.10;35.92;;;;;;;;;;5052727;28;20143;-80
2023/04/10 03:15:42;;;;;;;58.83;34.85;;;;;;;;;;5035727;28;20044;-80
2023/04/10 03:18:09;;;;;;;56.15;35.05;;;;;;;;;;5052836;28;20553;-80
2023/04/10 03:20:37;;;;;;;55.25;33.88;;;;;;;;;;5053793;28;20125;-80
2023/04/10 03:23:04;;;;;;;55.08;32.78;;;;;;;;;;5051850;28;20099;-80
2023/04/10 03:25:31;;;;;;;54.03;32.00;;;;;;;;;;5053388;28;20041;-80
2023/04/10 03:27:57;;;;;;;51.95;32.30;;;;;;;;;;5051865;28;20084;-80
2023/04/10 03:30:23;;;;;;;50.00;29.70;;;;;;;;;;5037926;28;20037;-80
2023/04/10 03:32:49;;;;;;;52.65;31.80;;;;;;;;;;5051728;28;20041;-80
2023/04/10 03:35:15;;;;;;;50.00;30.17;;;;;;;;;;5051364;28;20486;-80
2023/04/10 03:37:41;;;;;;;51.08;30.23;;;;;;;;;;5052142;28;20616;-80
2023/04/10 03:40:08;;;;;;;48.25;30.27;;;;;;;;;;5051716;28;20389;-80
2023/04/10 03:42:34;;;;;;;47.20;28.92;;;;;;;;;;5051790;28;20044;-80
2023/04/10 03:45:03;;;;;;;49.00;28.02;;;;;;;;;;5052382;28;20532;-80
2023/04/10 03:47:30;;;;;;;45.80;27.42;;;;;;;;;;5037474;28;20049;-80
2023/04/10 03:49:57;;;;;;;45.15;27.38;;;;;;;;;;5034894;28;20037;-80
2023/04/10 03:52:24;;;;;;;43.53;27.42;;;;;;;;;;5051307;28;20098;-80
2023/04/10 03:54:50;;;;;;;42.60;26.83;;;;;;;;;;5052722;28;20077;-80
2023/04/10 03:57:18;;;;;;;43.58;26.02;;;;;;;;;;5052381;28;20120;-80
2023/04/10 03:59:44;;;;;;;42.50;26.60;;;;;;;;;;5034944;28;20048;-80
2023/04/10 04:02:10;;;;;;;39.13;24.70;;;;;;;;;;5030666;28;20370;-80
2023/04/10 04:04:36;;;;;;;41.42;25.63;;;;;;;;;;5057480;28;20516;-80
2023/04/10 04:07:02;;;;;;;41.80;25.98;;;;;;;;;;5050025;28;20440;-80
2023/04/10 04:09:28;;;;;;;40.38;24.70;;;;;;;;;;5051275;28;20103;-80
2023/04/10 04:11:55;;;;;;;39.67;24.52;;;;;;;;;;5052518;28;20119;-80
2023/04/10 04:14:22;;;;;;;40.80;24.77;;;;;;;;;;5052114;28;20513;-80
2023/04/10 04:16:48;;;;;;;40.35;24.33;;;;;;;;;;5050780;28;20155;-80
2023/04/10 04:19:14;;;;;;;37.63;22.63;;;;;;;;;;5051948;28;20041;-80
2023/04/10 04:21:40;;;;;;;37.72;22.88;;;;;;;;;;5052337;28;20045;-80
2023/04/10 04:24:06;;;;;;;39.40;23.58;;;;;;;;;;5049903;28;20060;-80
2023/04/10 04:26:32;;;;;;;38.30;23.05;;;;;;;;;;5051093;28;20052;-80
2023/04/10 04:28:59;;;;;;;35.90;22.73;;;;;;;;;;5051100;28;20044;-81
2023/04/10 04:31:31;;;;;;;39.40;22.98;;;;;;;;;;5034111;28;20048;-80
2023/04/10 04:33:57;;;;;;;37.92;22.92;;;;;;;;;;5035422;28;20041;-80
2023/04/10 04:36:23;;;;;;;38.03;22.27;;;;;;;;;;5051837;28;20191;-80
2023/04/10 04:38:49;;;;;;;34.63;21.05;;;;;;;;;;5051976;28;20060;-80
2023/04/10 04:41:15;;;;;;;33.55;20.33;;;;;;;;;;5051902;28;20469;-80
2023/04/10 04:43:41;;;;;;;33.75;21.30;;;;;;;;;;5050291;28;20055;-80
2023/04/10 04:46:07;;;;;;;37.25;21.63;;;;;;;;;;5050628;28;20489;-80
2023/04/10 04:48:35;;;;;;;34.22;20.85;;;;;;;;;;5052172;28;20079;-80
2023/04/10 04:51:01;;;;;;;34.85;20.55;;;;;;;;;;5052045;28;20541;-80
2023/04/10 04:53:27;;;;;;;32.63;20.90;;;;;;;;;;5050526;28;20123;-80
2023/04/10 04:55:53;;;;;;;33.33;20.50;;;;;;;;;;5050863;28;20080;-80
2023/04/10 04:58:20;;;;;;;34.63;20.45;;;;;;;;;;5051462;28;20454;-80
2023/04/10 05:00:46;;;;;;;34.75;20.73;;;;;;;;;;5050889;28;20513;-80
2023/04/10 05:03:12;;;;;;;38.08;21.17;;;;;;;;;;5062257;28;20037;-80
2023/04/10 05:05:38;;;;;;;32.15;19.45;;;;;;;;;;5051947;28;20116;-80
2023/04/10 05:08:04;;;;;;;32.65;20.75;;;;;;;;;;5050529;28;20044;-80
2023/04/10 05:10:31;;;;;;;35.47;19.15;;;;;;;;;;5051724;28;20052;-80
2023/04/10 05:12:57;;;;;;;31.83;19.70;;;;;;;;;;5050355;28;20087;-80
2023/04/10 05:15:23;;;;;;;32.97;18.60;;;;;;;;;;5050122;28;20045;-80
2023/04/10 05:17:49;;;;;;;32.58;19.27;;;;;;;;;;5050450;28;20535;-80
2023/04/10 05:20:16;;;;;;;30.85;19.45;;;;;;;;;;5050036;28;20095;-80
2023/04/10 05:22:42;;;;;;;30.63;19.15;;;;;;;;;;5050263;28;20036;-80
2023/04/10 05:25:08;;;;;;;30.95;18.45;;;;;;;;;;5050317;28;20044;-80
2023/04/10 05:27:34;;;;;;;30.50;19.15;;;;;;;;;;5050029;28;20067;-80
2023/04/10 05:30:00;;;;;;;32.75;18.52;;;;;;;;;;5051688;28;20048;-80
2023/04/10 05:32:26;;;;;;;32.78;18.65;;;;;;;;;;5050173;28;20110;-80
2023/04/10 05:34:53;;;;;;;29.10;17.25;;;;;;;;;;5051647;28;20116;-81
2023/04/10 05:37:19;;;;;;;28.95;17.58;;;;;;;;;;5036747;28;20041;-81
2023/04/10 05:39:45;;;;;;;30.38;17.73;;;;;;;;;;5055711;28;20040;-81
2023/04/10 05:42:12;;;;;;;34.00;18.70;;;;;;;;;;5055437;28;20093;-81
2023/04/10 05:44:38;;;;;;;32.90;19.90;;;;;;;;;;5053619;28;20067;-81
2023/04/10 05:47:04;;;;;;;34.17;19.65;;;;;;;;;;5055420;28;20080;-81
2023/04/10 05:49:30;;;;;;;35.00;20.00;;;;;;;;;;5053485;28;20052;-81
2023/04/10 05:51:56;;;;;;;36.50;19.92;;;;;;;;;;5054014;28;20433;-81
2023/04/10 05:54:22;;;;;;;38.33;21.00;;;;;;;;;;5053165;28;20044;-81
2023/04/10 05:56:48;;;;;;;35.10;20.83;;;;;;;;;;5053861;28;20056;-81
2023/04/10 05:59:14;;;;;;;34.55;19.60;;;;;;;;;;5053597;28;20048;-81
2023/04/10 06:01:41;;;;;;;36.22;19.98;;;;;;;;;;5037162;28;20036;-81
2023/04/10 06:04:07;;;;;;;28.58;18.00;;;;;;;;;;5072126;28;20128;-81
2023/04/10 06:06:33;;;;;;;29.08;17.67;;;;;;;;;;5073119;28;20048;-81
2023/04/10 06:08:59;;;;;;;27.48;16.13;;;;;;;;;;5073321;28;20044;-82
2023/04/10 06:11:26;;;;;;;25.58;16.65;;;;;;;;;;5056620;28;20075;-81
2023/04/10 06:13:52;;;;;;;23.40;15.43;;;;;;;;;;5074509;28;20044;-82
2023/04/10 06:16:18;;;;;;;24.05;15.50;;;;;;;;;;5074788;28;20119;-82
2023/04/10 06:18:45;;;;;;;24.33;15.57;;;;;;;;;;5069036;28;20055;-81
2023/04/10 06:21:11;;;;;;;22.95;14.45;;;;;;;;;;5053375;28;20060;-82
2023/04/10 06:23:37;;;;;;;23.33;15.52;;;;;;;;;;5053737;28;20041;-82
2023/04/10 06:26:03;;;;;;;23.77;15.68;;;;;;;;;;5053190;28;20131;-82
2023/04/10 06:28:29;;;;;;;22.17;15.23;;;;;;;;;;5054164;28;20049;-82
2023/04/10 06:30:56;;;;;;;21.40;14.82;;;;;;;;;;5053372;28;20124;-82
2023/04/10 06:33:22;;;;;;;22.17;14.35;;;;;;;;;;5053987;28;20401;-83
2023/04/10 06:35:49;;;;;;;26.92;16.08;;;;;;;;;;5053209;28;20087;-82
2023/04/10 06:38:15;;;;;;;25.60;16.17;;;;;;;;;;5052961;28;20478;-82
2023/04/10 06:40:41;;;;;;;26.52;15.35;;;;;;;;;;5054140;28;20063;-82
2023/04/10 06:43:07;;;;;;;22.35;14.55;;;;;;;;;;5053165;28;20037;-82
2023/04/10 06:45:33;;;;;;;22.08;14.43;;;;;;;;;;5053675;28;20064;-82
2023/04/10 06:47:59;;;;;;;21.08;14.25;;;;;;;;;;5053348;28;20501;-82
2023/04/10 06:50:26;;;;;;;21.15;14.18;;;;;;;;;;5053965;28;20041;-82
2023/04/10 06:52:54;;;;;;;23.92;14.10;;;;;;;;;;5052557;28;20071;-83
2023/04/10 06:55:20;;;;;;;21.45;14.43;;;;;;;;;;5052587;28;20090;-82
2023/04/10 06:57:47;;;;;;;21.65;13.85;;;;;;;;;;5053647;28;20123;-82
2023/04/10 07:00:13;;;;;;;22.55;13.77;;;;;;;;;;5053684;28;20375;-82
2023/04/10 07:02:39;;;;;;;20.95;14.43;;;;;;;;;;5060191;28;20037;-82
2023/04/10 07:05:06;;;;;;;19.42;12.98;;;;;;;;;;5065687;28;20045;-82
2023/04/10 07:07:32;;;;;;;19.52;13.70;;;;;;;;;;5053447;28;20036;-82
2023/04/10 07:09:58;;;;;;;18.45;12.88;;;;;;;;;;5053741;28;20048;-83
2023/04/10 07:12:24;;;;;;;19.42;12.82;;;;;;;;;;5052364;28;20037;-83
2023/04/10 07:14:50;;;;;;;19.02;13.00;;;;;;;;;;5053396;28;20493;-82
2023/04/10 07:17:16;;;;;;;18.83;13.05;;;;;;;;;;5053602;28;20476;-82
2023/04/10 07:19:42;;;;;;;17.25;12.65;;;;;;;;;;5052190;28;20394;-83
2023/04/10 07:22:08;;;;;;;18.40;12.38;;;;;;;;;;5052285;28;20477;-83
2023/04/10 07:24:34;;;;;;;18.85;12.77;;;;;;;;;;5051804;28;20049;-83
2023/04/10 07:27:00;;;;;;;18.13;12.68;;;;;;;;;;5052019;28;20049;-83
2023/04/10 07:29:26;;;;;;;16.50;12.50;;;;;;;;;;5053516;28;20092;-83
2023/04/10 07:31:53;;;;;;;17.90;12.65;;;;;;;;;;5052092;28;20049;-83
2023/04/10 07:34:19;;;;;;;17.45;12.25;;;;;;;;;;5053049;28;20048;-83
2023/04/10 07:36:46;;;;;;;16.75;12.25;;;;;;;;;;5051861;28;20047;-83
2023/04/10 07:39:12;;;;;;;17.25;12.23;;;;;;;;;;5051816;28;20508;-83
2023/04/10 07:41:38;;;;;;;15.80;11.95;;;;;;;;;;5051465;28;20047;-83
2023/04/10 07:44:04;;;;;;;16.52;11.55;;;;;;;;;;5051659;28;20106;-83
2023/04/10 07:46:30;;;;;;;17.27;12.38;;;;;;;;;;5051358;28;20053;-83
2023/04/10 07:48:56;;;;;;;18.42;12.07;;;;;;;;;;5052158;28;20096;-83
2023/04/10 07:51:22;;;;;;;16.15;11.98;;;;;;;;;;5051638;28;20098;-83
2023/04/10 07:53:48;;;;;;;17.00;12.70;;;;;;;;;;5052335;28;20041;-83
2023/04/10 07:56:16;;;;;;;17.90;12.35;;;;;;;;;;5051868;28;20037;-83
2023/04/10 07:58:42;;;;;;;16.52;11.73;;;;;;;;;;5052292;28;20047;-83
2023/04/10 08:01:08;;;;;;;17.45;11.75;;;;;;;;;;5052735;28;20041;-83
2023/04/10 08:03:38;;;;;;;15.70;11.52;;;;;;;;;;5065167;28;20089;-83
2023/04/10 08:06:04;;;;;;;15.25;11.52;;;;;;;;;;5071624;28;20505;-83
2023/04/10 08:08:30;;;;;;;17.67;11.65;;;;;;;;;;5060157;28;20122;-83
2023/04/10 08:10:56;;;;;;;16.20;11.07;;;;;;;;;;5038377;28;20045;-83
2023/04/10 08:13:22;;;;;;;16.05;11.45;;;;;;;;;;5052385;28;20119;-83
2023/04/10 08:15:49;;;;;;;18.55;11.65;;;;;;;;;;5034241;28;20094;-83
2023/04/10 08:18:15;;;;;;;15.85;11.07;;;;;;;;;;5031523;28;20120;-83
2023/04/10 08:20:41;;;;;;;16.42;11.93;;;;;;;;;;5049642;28;20037;-84
2023/04/10 08:23:07;;;;;;;16.27;11.15;;;;;;;;;;5052500;28;20043;-84
2023/04/10 08:25:33;;;;;;;16.35;11.93;;;;;;;;;;5052368;28;20041;-83
2023/04/10 08:27:59;;;;;;;18.05;11.65;;;;;;;;;;5051879;28;20453;-83
2023/04/10 08:30:25;;;;;;;15.48;11.85;;;;;;;;;;5050291;28;20073;-83
2023/04/10 08:32:51;;;;;;;17.83;12.32;;;;;;;;;;5051760;28;20073;-83
2023/04/10 08:35:17;;;;;;;14.50;11.60;;;;;;;;;;5014732;28;20091;-83
2023/04/10 08:37:43;;;;;;;15.85;11.65;;;;;;;;;;5043603;28;20094;-83
2023/04/10 08:40:09;;;;;;;15.70;10.95;;;;;;;;;;5050696;28;20043;-84
2023/04/10 08:42:36;;;;;;;14.50;11.60;;;;;;;;;;5051098;28;20068;-84
2023/04/10 08:45:03;;;;;;;14.45;11.15;;;;;;;;;;5016982;28;20061;-83
2023/04/10 08:47:30;;;;;;;14.77;11.40;;;;;;;;;;5051091;28;20405;-83
2023/04/10 08:49:57;;;;;;;14.45;10.23;;;;;;;;;;5050226;28;20056;-83
2023/04/10 08:52:29;;;;;;;15.20;10.18;;;;;;;;;;5050832;28;20075;-83
2023/04/10 08:54:57;;;;;;;13.55;10.20;;;;;;;;;;5050068;28;20051;-83
2023/04/10 08:57:25;;;;;;;13.57;9.73;;;;;;;;;;5051025;28;20052;-83
2023/04/10 08:59:52;;;;;;;13.20;9.57;;;;;;;;;;5051475;28;20052;-84
2023/04/10 09:02:18;;;;;;;14.55;9.50;;;;;;;;;;5055280;28;20075;-83
2023/04/10 09:04:47;;;;;;;14.10;9.63;;;;;;;;;;5071814;28;20520;-84
2023/04/10 09:07:13;;;;;;;13.82;9.38;;;;;;;;;;5070559;28;20041;-84
2023/04/10 09:09:39;;;;;;;11.00;9.00;;;;;;;;;;5072169;28;20374;-83
2023/04/10 09:12:06;;;;;;;13.50;9.52;;;;;;;;;;5074783;28;20227;-83
2023/04/10 09:14:35;;;;;;;13.80;9.52;;;;;;;;;;5058161;28;20044;-83
2023/04/10 09:17:11;;;;;;;13.02;9.40;;;;;;;;;;5074241;28;20041;-83
2023/04/10 09:19:37;;;;;;;11.98;9.00;;;;;;;;;;5044903;28;20049;-83
2023/04/10 09:22:03;;;;;;;12.68;9.73;;;;;;;;;;5054616;28;20041;-83
2023/04/10 09:24:29;;;;;;;12.73;8.75;;;;;;;;;;5055872;28;20044;-83
2023/04/10 09:26:55;;;;;;;12.82;9.70;;;;;;;;;;5055063;28;20048;-83
2023/04/10 09:29:21;;;;;;;13.88;10.07;;;;;;;;;;5071247;28;20088;-83
2023/04/10 09:31:47;;;;;;;11.48;8.73;;;;;;;;;;5053723;28;20040;-83
2023/04/10 09:34:17;;;;;;;12.98;9.35;;;;;;;;;;5054445;28;20048;-83
2023/04/10 09:36:44;;;;;;;13.05;9.10;;;;;;;;;;5053984;28;20037;-83
2023/04/10 09:39:11;;;;;;;15.65;9.18;;;;;;;;;;5054277;28;20115;-83
2023/04/10 09:42:06;;;;;;;11.38;8.48;;;;;;;;;;5053735;28;20029;-83
2023/04/10 09:44:34;;;;;;;13.85;9.68;;;;;;;;;;5049783;28;20509;-83
2023/04/10 09:47:17;;;;;;;14.07;9.50;;;;;;;;;;5054675;28;20120;-83
2023/04/10 09:49:59;;;;;;;12.23;9.02;;;;;;;;;;5054200;28;20555;-83
2023/04/10 09:52:27;;;;;;;12.27;9.10;;;;;;;;;;5055592;28;20500;-83
2023/04/10 09:54:54;;;;;;;13.75;9.23;;;;;;;;;;5053566;28;20056;-83
2023/04/10 09:57:21;;;;;;;12.80;9.30;;;;;;;;;;5054853;28;20094;-83
2023/04/10 09:59:51;;;;;;;12.45;8.82;;;;;;;;;;5053306;28;20446;-83
2023/04/10 10:02:18;;;;;;;17.30;9.55;;;;;;;;;;5057469;28;20060;-83
2023/04/10 10:04:46;;;;;;;13.65;9.13;;;;;;;;;;5073959;28;20048;-82
2023/04/10 10:07:14;;;;;;;14.88;9.48;;;;;;;;;;5073261;28;20064;-82
2023/04/10 10:09:40;;;;;;;13.45;9.00;;;;;;;;;;5071933;28;20076;-83
2023/04/10 10:12:07;;;;;;;12.68;9.25;;;;;;;;;;5052991;28;20053;-83
2023/04/10 10:14:35;;;;;;;13.85;9.73;;;;;;;;;;5053470;28;20175;-83
2023/04/10 10:17:06;;;;;;;14.57;10.13;;;;;;;;;;5054164;28;20449;-83
2023/04/10 10:19:42;;;;;;;13.60;9.40;;;;;;;;;;5053562;28;20080;-82
2023/04/10 10:22:09;;;;;;;13.98;9.32;;;;;;;;;;5051699;28;20044;-82
2023/04/10 10:24:36;;;;;;;14.13;9.30;;;;;;;;;;5053374;28;20048;-82
2023/04/10 10:27:03;;;;;;;12.73;8.77;;;;;;;;;;5053890;28;20033;-82
2023/04/10 10:29:31;;;;;;;11.70;8.20;;;;;;;;;;5053375;28;20041;-83
2023/04/10 10:32:01;;;;;;;13.95;8.32;;;;;;;;;;5036385;28;20531;-83
2023/04/10 10:34:28;;;;;;;12.82;8.85;;;;;;;;;;5054904;28;20049;-83
2023/04/10 10:36:54;;;;;;;13.93;8.80;;;;;;;;;;5035991;28;20120;-82
2023/04/10 10:39:24;;;;;;;13.85;8.98;;;;;;;;;;5054504;28;20514;-82
2023/04/10 10:42:00;;;;;;;12.52;8.65;;;;;;;;;;5053219;28;20124;-82
2023/04/10 10:44:34;;;;;;;12.55;9.20;;;;;;;;;;5053846;28;20061;-82
2023/04/10 10:47:05;;;;;;;12.85;8.93;;;;;;;;;;5052832;28;20052;-82
2023/04/10 10:49:50;;;;;;;12.90;8.55;;;;;;;;;;5055060;28;20116;-83
2023/04/10 10:52:36;;;;;;;13.73;8.70;;;;;;;;;;5053283;28;20132;-83
2023/04/10 10:55:23;;;;;;;13.45;8.23;;;;;;;;;;5052728;28;20045;-83
2023/04/10 10:57:50;;;;;;;11.98;8.63;;;;;;;;;;5052715;28;20049;-82
2023/04/10 11:00:16;;;;;;;13.35;8.25;;;;;;;;;;5053749;28;20045;-83
2023/04/10 11:02:43;;;;;;;13.25;8.77;;;;;;;;;;5052603;28;20029;-83
2023/04/10 11:05:09;;;;;;;12.23;8.48;;;;;;;;;;5052410;28;20051;-83
2023/04/10 11:07:53;;;;;;;12.30;8.88;;;;;;;;;;5053741;28;20498;-83
2023/04/10 11:10:40;;;;;;;12.77;8.82;;;;;;;;;;5053498;28;20116;-83
2023/04/10 11:13:16;;;;;;;13.88;9.10;;;;;;;;;;5085479;28;20371;-83
2023/04/10 11:15:42;;;;;;;12.10;8.50;;;;;;;;;;5052423;28;20041;-83
2023/04/10 11:18:09;;;;;;;14.40;8.95;;;;;;;;;;5053041;28;20033;-83
2023/04/10 11:20:55;;;;;;;12.80;8.82;;;;;;;;;;5052565;28;20056;-83
2023/04/10 11:23:21;;;;;;;11.13;8.15;;;;;;;;;;5051978;28;20060;-83
2023/04/10 11:25:51;;;;;;;11.23;8.40;;;;;;;;;;5052327;28;20044;-83
2023/04/10 11:28:32;;;;;;;12.57;8.60;;;;;;;;;;5051556;28;20037;-83
2023/04/10 11:31:18;;;;;;;12.55;8.98;;;;;;;;;;5053436;28;20120;-83
2023/04/10 11:33:45;;;;;;;11.05;8.55;;;;;;;;;;5052777;28;20075;-83
2023/04/10 11:36:16;;;;;;;13.27;8.70;;;;;;;;;;5052957;28;20539;-83
2023/04/10 11:38:53;;;;;;;11.68;8.02;;;;;;;;;;5053077;28;20072;-83
2023/04/10 11:41:19;;;;;;;11.82;8.77;;;;;;;;;;5051766;28;20041;-83
2023/04/10 11:43:45;;;;;;;13.27;8.45;;;;;;;;;;5051760;28;20095;-84
2023/04/10 11:46:11;;;;;;;13.15;9.35;;;;;;;;;;5052780;28;20043;-83
2023/04/10 11:48:37;;;;;;;10.95;8.27;;;;;;;;;;5051926;28;20493;-82
2023/04/10 11:51:07;;;;;;;11.63;8.63;;;;;;;;;;5052482;28;20082;-82
2023/04/10 11:53:34;;;;;;;11.00;7.93;;;;;;;;;;5052833;28;20397;-83
2023/04/10 11:56:00;;;;;;;12.65;8.35;;;;;;;;;;5051775;28;20041;-82
2023/04/10 11:58:27;;;;;;;11.38;7.88;;;;;;;;;;5034801;28;20084;-83
2023/04/10 12:01:13;;;;;;;9.48;6.80;;;;;;;;;;5052611;28;20044;-83
2023/04/10 12:03:40;;;;;;;10.90;7.78;;;;;;;;;;5085242;28;20096;-83
2023/04/10 12:06:08;;;;;;;9.85;7.50;;;;;;;;;;5052268;28;20041;-83
2023/04/10 12:08:35;;;;;;;12.57;8.35;;;;;;;;;;5034490;28;20044;-82
2023/04/10 12:11:01;;;;;;;10.00;7.43;;;;;;;;;;5051704;28;20366;-83
2023/04/10 12:13:31;;;;;;;11.07;7.82;;;;;;;;;;5067863;28;20037;-83
2023/04/10 12:16:01;;;;;;;12.05;7.68;;;;;;;;;;5051589;28;20080;-84
2023/04/10 12:18:28;;;;;;;10.43;7.65;;;;;;;;;;5051789;28;20126;-83
2023/04/10 12:20:56;;;;;;;10.27;7.85;;;;;;;;;;5051469;28;20041;-84
2023/04/10 12:23:23;;;;;;;10.55;7.13;;;;;;;;;;5051978;28;20044;-84
2023/04/10 12:25:49;;;;;;;11.00;7.30;;;;;;;;;;5052234;28;20087;-84
2023/04/10 12:28:22;;;;;;;10.88;7.68;;;;;;;;;;5050644;28;20045;-84
2023/04/10 12:30:52;;;;;;;10.60;7.82;;;;;;;;;;5052015;28;20040;-84
2023/04/10 12:33:27;;;;;;;10.20;7.22;;;;;;;;;;5050827;28;20052;-84
2023/04/10 12:35:53;;;;;;;11.93;7.53;;;;;;;;;;5051231;28;20540;-83
2023/04/10 12:38:36;;;;;;;13.65;7.50;;;;;;;;;;5034227;28;20441;-84
2023/04/10 12:41:02;;;;;;;11.25;6.63;;;;;;;;;;5034253;28;20052;-83
2023/04/10 12:43:35;;;;;;;14.57;7.38;;;;;;;;;;5051765;28;20044;-83
2023/04/10 12:46:01;;;;;;;10.60;7.32;;;;;;;;;;5050017;28;20053;-84
2023/04/10 12:48:27;;;;;;;9.88;7.15;;;;;;;;;;5051564;28;20041;-84
2023/04/10 12:50:54;;;;;;;12.00;7.40;;;;;;;;;;5052059;28;20037;-84
2023/04/10 12:53:20;;;;;;;10.50;7.75;;;;;;;;;;5033870;28;20048;-84
2023/04/10 12:55:58;;;;;;;10.80;7.55;;;;;;;;;;5050775;28;20102;-84
2023/04/10 12:58:27;;;;;;;10.98;7.20;;;;;;;;;;5050541;28;20548;-83
2023/04/10 13:00:55;;;;;;;11.60;7.07;;;;;;;;;;5050451;28;20037;-84
2023/04/10 13:03:21;;;;;;;9.88;6.95;;;;;;;;;;5062914;28;20048;-84
2023/04/10 13:05:47;;;;;;;11.13;7.03;;;;;;;;;;5070774;28;20040;-84
2023/04/10 13:08:14;;;;;;;10.05;6.47;;;;;;;;;;5070330;28;20040;-84
2023/04/10 13:10:41;;;;;;;11.63;7.32;;;;;;;;;;5071720;28;20044;-84
2023/04/10 13:13:07;;;;;;;11.98;7.13;;;;;;;;;;5070588;28;20052;-83
2023/04/10 13:15:33;;;;;;;9.48;7.03;;;;;;;;;;5071470;28;20094;-83
2023/04/10 13:18:00;;;;;;;9.95;6.93;;;;;;;;;;5071971;28;20400;-83
2023/04/10 13:20:26;;;;;;;9.48;6.72;;;;;;;;;;5070445;28;20044;-83
2023/04/10 13:22:52;;;;;;;9.25;6.53;;;;;;;;;;5071774;28;20068;-84
2023/04/10 13:25:19;;;;;;;10.85;6.70;;;;;;;;;;5053478;28;20093;-84
2023/04/10 13:27:45;;;;;;;12.60;7.30;;;;;;;;;;5070349;28;20066;-84
2023/04/10 13:30:11;;;;;;;12.70;6.68;;;;;;;;;;5072024;28;20043;-84
2023/04/10 13:32:37;;;;;;;19.05;7.07;;;;;;;;;;5070170;28;20489;-84
2023/04/10 13:35:03;;;;;;;10.27;7.15;;;;;;;;;;5071889;28;20123;-83
2023/04/10 13:37:29;;;;;;;10.40;7.18;;;;;;;;;;5053641;28;20048;-84
2023/04/10 13:39:55;;;;;;;10.38;6.85;;;;;;;;;;5070416;28;20036;-83
2023/04/10 13:42:21;;;;;;;8.27;5.95;;;;;;;;;;5070184;28;20044;-84
2023/04/10 13:44:47;;;;;;;9.48;6.65;;;;;;;;;;5071517;28;20095;-84
2023/04/10 13:47:14;;;;;;;9.77;6.47;;;;;;;;;;5071893;28;20045;-84
2023/04/10 13:49:40;;;;;;;11.07;6.93;;;;;;;;;;5069991;28;20036;-83
2023/04/10 13:52:06;;;;;;;8.75;6.50;;;;;;;;;;5071575;28;20040;-83
2023/04/10 13:54:32;;;;;;;10.63;6.53;;;;;;;;;;5053417;28;20134;-84
2023/04/10 13:56:58;;;;;;;10.27;6.13;;;;;;;;;;5072073;28;20032;-84
2023/04/10 13:59:25;;;;;;;7.88;5.93;;;;;;;;;;5073743;28;20037;-84
2023/04/10 14:01:51;;;;;;;12.18;6.25;;;;;;;;;;5059670;28;20129;-84
2023/04/10 14:04:17;;;;;;;8.98;6.53;;;;;;;;;;5047191;28;20063;-83
2023/04/10 14:06:43;;;;;;;10.80;6.25;;;;;;;;;;5073748;28;20548;-83
2023/04/10 14:09:10;;;;;;;8.27;6.05;;;;;;;;;;5074896;28;20378;-83
2023/04/10 14:11:36;;;;;;;8.13;5.75;;;;;;;;;;5074612;28;20105;-83
2023/04/10 14:14:02;;;;;;;7.70;6.25;;;;;;;;;;5073359;28;20055;-83
2023/04/10 14:16:28;;;;;;;9.40;6.10;;;;;;;;;;5073404;28;20042;-83
2023/04/10 14:18:54;;;;;;;7.88;6.00;;;;;;;;;;5074599;28;20048;-83
2023/04/10 14:21:20;;;;;;;10.32;6.03;;;;;;;;;;5073644;28;20035;-83
2023/04/10 14:23:47;;;;;;;9.45;5.97;;;;;;;;;;5073520;28;20526;-83
2023/04/10 14:26:13;;;;;;;9.50;5.80;;;;;;;;;;5073374;28;20096;-83